Melvindale, MI (48122)

10:56 PM EDT on July 05, 2015 (GMT -0400)
Southfield And Outer Drive | | Change Station
CLOSE
Current Station
Personal Weather Station
Location: Allen Park, MI
Elevation: 630 ft
Nearby Weather Stations

Elev 630 ft 42.27 °N, 83.21 °W | Updated 31 seconds ago

Partly Cloudy
Partly Cloudy
71.2 °F
Feels Like 74 °F
N
0.0
Wind Variable Wind from SE
Gusts 0.0 mph

Today
High -- | Low -- °F
--% Chance of Precip.
Yesterday
High -- | Low -- °F
Precip. -- in
6:02 AM 9:12 PM
Waning Gibbous, 80% visible
Pressure 30.09 in
Visibility 9.0 miles
Clouds Mostly Cloudy 20000 ft
Heat Index 74 °F
Dew Point 61 °F
Humidity 69%
Rainfall 0.00 in
Snow Depth Not available.
UV 0.0 out of 12
Pollen 1.40 out of 12
Air Quality Not available.
Flu Activity Not available.
METAR KDTW 060253Z 00000KT 9SM BKN200 21/15 A3010 RMK AO2 SLP189 T02060150 53004

More Conditions Fewer Conditions

Pressure 30.09 in
Visibility 9.0 miles
Clouds Mostly Cloudy 20000 ft
Heat Index 74 °F
Dew Point 61 °F
Humidity 69%
Rainfall 0.00 in
Snow Depth Not available.
UV 0.0 out of 12
Pollen 1.40 out of 12
Air Quality Not available.
Flu Activity Not available.
METAR KDTW 060253Z 00000KT 9SM BKN200 21/15 A3010 RMK AO2 SLP189 T02060150 53004

More Conditions Fewer Conditions

10-Day Weather Forecast

×

Almanac

Astronomy

Jul. 05, 2015 Rise Set
Actual Time
Civil Twilight
Nautical Twilight
Astronomical Twilight
Moon
Length of Visible Light
Length of Day
Tomorrow will be .
, % of the Moon is Illuminated

Today's Extremes

State Highs State Lows

Community

WunderPhotos

Upload Photos

1,835,454 photos uploaded!

WunderBlogs® & News

Nearby

Air Quality

  Air Quality AQ Index Pollutant
Not available.

Snow Depth

Station Depth Elevation

Earthquake Activity

City Distance Mag. Time & Date
Minimum magnitude displayed is 2.5.

Coastal Water Temperatures

Place Temperature

Stations

Nearby Weather Stations

Station Location Temp. Windchill Dew Point Humidity Wind Precip. Elev Updated Type